Time;durP1;ratioP1;P1;durP2;ratioP2;P2;SDS_P1;SDS_P2;PMS_P1;PMS_P2;Temp;Humidity;BMP_temperature;BMP_pressure;BME280_temperature;BME280_humidity;BME280_pressure;Samples;Min_cycle;Max_cycle;Signal;HPM_P1;HPM_P2
2023/10/22 00:01:21;;;;;;;6.90;3.30;;;;;;;16.66;100.00;100464.84;5042953;28;20224;-73
2023/10/22 00:03:51;;;;;;;7.50;4.22;;;;;;;16.64;100.00;100470.94;5047164;28;20049;-73
2023/10/22 00:06:20;;;;;;;6.63;3.03;;;;;;;16.63;100.00;100464.84;5032227;28;20063;-73
2023/10/22 00:08:53;;;;;;;3.67;2.70;;;;;;;16.63;100.00;100467.47;5046311;28;20045;-74
2023/10/22 00:11:21;;;;;;;4.85;2.13;;;;;;;16.62;100.00;100463.09;5038764;28;20048;-75
2023/10/22 00:13:50;;;;;;;3.92;2.33;;;;;;;16.61;100.00;100457.91;5030778;28;20045;-74
2023/10/22 00:16:19;;;;;;;5.60;2.30;;;;;;;16.61;100.00;100457.91;5035821;28;20079;-73
2023/10/22 00:18:48;;;;;;;4.38;1.98;;;;;;;16.60;100.00;100462.22;5037516;28;20091;-74
2023/10/22 00:21:17;;;;;;;4.97;2.40;;;;;;;16.60;100.00;100456.13;5031875;28;20049;-73
2023/10/22 00:23:45;;;;;;;5.22;2.65;;;;;;;16.60;100.00;100456.13;5038542;28;20136;-74
2023/10/22 00:26:17;;;;;;;3.92;2.15;;;;;;;16.55;100.00;100448.31;5042654;28;20049;-74
2023/10/22 00:28:46;;;;;;;6.90;3.23;;;;;;;16.56;100.00;100455.28;5043570;28;20059;-73
2023/10/22 00:31:14;;;;;;;6.18;3.15;;;;;;;16.55;100.00;100453.53;5045112;28;20372;-73
2023/10/22 00:33:43;;;;;;;5.75;2.65;;;;;;;16.53;100.00;100453.50;5040778;28;20053;-76
2023/10/22 00:36:13;;;;;;;4.72;2.85;;;;;;;16.52;100.00;100454.41;5041343;28;20053;-76
2023/10/22 00:38:42;;;;;;;3.70;2.22;;;;;;;16.53;100.00;100456.13;5040727;28;20318;-75
2023/10/22 00:41:10;;;;;;;9.55;3.35;;;;;;;16.53;100.00;100458.75;5030198;28;20567;-75
2023/10/22 00:43:44;;;;;;;5.97;2.58;;;;;;;16.53;100.00;100448.28;5031139;28;20708;-75
2023/10/22 00:46:20;;;;;;;4.32;2.22;;;;;;;16.50;100.00;100450.03;5037973;28;20533;-76
2023/10/22 00:48:49;;;;;;;3.85;2.45;;;;;;;16.47;100.00;100450.91;5032160;28;20048;-76
2023/10/22 00:51:27;;;;;;;5.82;2.10;;;;;;;16.44;100.00;100456.13;5042727;28;20504;-73
2023/10/22 00:53:57;;;;;;;11.23;2.20;;;;;;;16.41;100.00;100450.91;5029904;28;20041;-76
2023/10/22 00:56:26;;;;;;;3.10;2.08;;;;;;;16.41;100.00;100450.91;5032403;28;20490;-76
2023/10/22 00:59:06;;;;;;;4.22;2.45;;;;;;;16.40;100.00;100451.78;5041846;28;20060;-75
2023/10/22 01:01:39;;;;;;;3.45;2.08;;;;;;;16.40;100.00;100456.13;5034466;28;20045;-75
2023/10/22 01:04:08;;;;;;;7.22;2.28;;;;;;;16.41;100.00;100448.28;5038935;28;20072;-76
2023/10/22 01:06:37;;;;;;;3.35;2.15;;;;;;;16.41;100.00;100450.03;5035761;28;20045;-74
2023/10/22 01:09:11;;;;;;;6.40;2.72;;;;;;;16.40;100.00;100443.97;5041434;28;20491;-75
2023/10/22 01:11:54;;;;;;;4.95;2.08;;;;;;;16.39;100.00;100447.41;5029382;28;20081;-75
2023/10/22 01:14:27;;;;;;;6.90;2.60;;;;;;;16.34;100.00;100454.38;5029953;28;20057;-76
2023/10/22 01:16:56;;;;;;;3.35;2.10;;;;;;;16.29;100.00;100461.34;5040202;28;20072;-75
2023/10/22 01:19:25;;;;;;;5.25;1.75;;;;;;;16.25;100.00;100457.00;5036145;28;20487;-75
2023/10/22 01:21:56;;;;;;;2.67;1.95;;;;;;;16.23;100.00;100454.38;5036674;28;20518;-74
2023/10/22 01:24:32;;;;;;;6.03;2.72;;;;;;;16.23;100.00;100453.50;5040097;28;20073;-74
2023/10/22 01:27:01;;;;;;;3.88;2.00;;;;;;;16.20;100.00;100458.72;5036197;28;20037;-75
2023/10/22 01:29:30;;;;;;;4.60;2.13;;;;;;;16.17;100.00;100461.31;5034472;28;20059;-73
2023/10/22 01:31:58;;;;;;;3.25;1.95;;;;;;;16.15;100.00;100463.03;5032541;28;20045;-76
2023/10/22 01:34:32;;;;;;;3.45;1.83;;;;;;;16.15;100.00;100457.81;5041027;28;20041;-75
2023/10/22 01:37:01;;;;;;;2.75;2.08;;;;;;;16.15;100.00;100460.44;5028386;28;20084;-74
2023/10/22 01:39:31;;;;;;;3.53;2.10;;;;;;;16.15;100.00;100463.03;5040819;28;20132;-77
2023/10/22 01:41:59;;;;;;;3.75;2.45;;;;;;;16.11;100.00;100468.25;5037260;28;20052;-76
2023/10/22 01:44:36;;;;;;;3.75;1.77;;;;;;;16.08;100.00;100468.28;5037904;28;20045;-76
2023/10/22 01:47:14;;;;;;;3.95;2.25;;;;;;;16.06;100.00;100472.63;5043763;28;20110;-78
2023/10/22 01:49:44;;;;;;;4.35;1.85;;;;;;;16.02;100.00;100472.59;5036047;28;20136;-77
2023/10/22 01:52:15;;;;;;;3.30;2.35;;;;;;;16.01;100.00;100476.06;5032852;28;20458;-77
2023/10/22 01:54:46;;;;;;;3.60;2.38;;;;;;;15.98;100.00;100479.53;5038167;28;20091;-78
2023/10/22 01:57:14;;;;;;;4.30;1.77;;;;;;;15.95;100.00;100476.06;5044213;28;20467;-76
2023/10/22 01:59:48;;;;;;;3.00;1.77;;;;;;;15.96;100.00;100477.78;5046016;28;20057;-76
2023/10/22 02:02:19;;;;;;;3.00;2.20;;;;;;;15.97;100.00;100484.78;5031785;28;20049;-76
2023/10/22 02:04:48;;;;;;;4.95;2.20;;;;;;;15.97;100.00;100484.78;5032308;28;20053;-74
2023/10/22 02:07:17;;;;;;;3.63;2.42;;;;;;;15.98;100.00;100483.88;5032069;28;20651;-75
2023/10/22 02:09:48;;;;;;;3.97;1.83;;;;;;;15.98;100.00;100487.38;5032193;28;20053;-76
2023/10/22 02:12:17;;;;;;;4.43;1.85;;;;;;;15.95;100.00;100486.50;5033768;28;20049;-76
2023/10/22 02:14:45;;;;;;;4.40;2.30;;;;;;;15.98;100.00;100496.94;5034689;28;20049;-79
2023/10/22 02:17:27;;;;;;;3.25;1.60;;;;;;;15.99;100.00;100491.72;5037658;28;20053;-77
2023/10/22 02:19:58;;;;;;;4.53;2.45;;;;;;;16.01;100.00;100487.41;4999473;28;20163;-77
2023/10/22 02:22:27;;;;;;;2.33;1.90;;;;;;;16.00;100.00;100485.63;4991389;28;20089;-76
2023/10/22 02:24:57;;;;;;;4.78;1.98;;;;;;;15.99;100.00;100498.66;4993147;28;20049;-78
2023/10/22 02:27:25;;;;;;;3.30;1.52;;;;;;;15.95;100.00;100497.81;5002959;28;20055;-77
2023/10/22 02:30:03;;;;;;;4.72;2.30;;;;;;;15.94;100.00;100492.56;5001616;28;20054;-76
2023/10/22 02:32:35;;;;;;;3.20;2.03;;;;;;;15.94;100.00;100495.19;4998972;28;20425;-77
2023/10/22 02:35:14;;;;;;;3.13;2.00;;;;;;;15.95;100.00;100495.19;4998811;28;20064;-77
2023/10/22 02:37:43;;;;;;;2.97;1.80;;;;;;;15.93;100.00;100494.31;4999074;28;20567;-77
2023/10/22 02:40:14;;;;;;;5.32;2.17;;;;;;;15.91;100.00;100496.03;4994025;28;20091;-77
2023/10/22 02:42:42;;;;;;;3.13;2.00;;;;;;;15.91;100.00;100498.66;4992286;28;20053;-76
2023/10/22 02:45:16;;;;;;;3.58;2.00;;;;;;;15.90;100.00;100497.78;4995709;28;20046;-77
2023/10/22 02:47:44;;;;;;;3.05;1.90;;;;;;;15.89;100.00;100488.19;5005536;28;20104;-78
2023/10/22 02:50:13;;;;;;;3.50;1.95;;;;;;;15.87;100.00;100486.44;5004144;28;20492;-77
2023/10/22 02:52:42;;;;;;;3.22;1.88;;;;;;;15.85;100.00;100490.78;5010103;28;20037;-76
2023/10/22 02:55:12;;;;;;;5.13;2.10;;;;;;;15.83;100.00;100492.56;5002201;28;20046;-78
2023/10/22 02:57:44;;;;;;;3.75;1.85;;;;;;;15.81;100.00;100487.31;5000929;28;20113;-77
2023/10/22 03:00:13;;;;;;;3.63;2.13;;;;;;;15.82;100.00;100485.56;4998754;28;20055;-76
2023/10/22 03:02:42;;;;;;;4.85;2.35;;;;;;;15.83;100.00;100484.72;5004882;28;20042;-77
2023/10/22 03:05:11;;;;;;;8.18;2.78;;;;;;;15.84;100.00;100489.06;5000155;28;20046;-77
2023/10/22 03:07:45;;;;;;;5.32;2.00;;;;;;;15.83;100.00;100482.13;4994295;28;20051;-76
2023/10/22 03:10:18;;;;;;;5.65;2.20;;;;;;;15.84;100.00;100489.06;4991628;28;20085;-75
2023/10/22 03:12:49;;;;;;;3.13;2.10;;;;;;;15.83;100.00;100484.72;4997130;28;20132;-76
2023/10/22 03:15:18;;;;;;;8.20;2.15;;;;;;;15.82;100.00;100480.34;4998626;28;20076;-75
2023/10/22 03:18:03;;;;;;;4.20;1.90;;;;;;;15.81;100.00;100494.28;5003733;28;20064;-76
2023/10/22 03:20:46;;;;;;;3.58;2.17;;;;;;;15.73;100.00;100478.56;5040365;28;20076;-76
2023/10/22 03:23:15;;;;;;;3.83;2.05;;;;;;;15.78;100.00;100484.72;5036727;28;20127;-75
2023/10/22 03:25:48;;;;;;;4.25;2.53;;;;;;;15.80;100.00;100482.09;5037782;28;20070;-75
2023/10/22 03:28:16;;;;;;;3.28;2.22;;;;;;;15.82;100.00;100476.00;5036780;28;20091;-76
2023/10/22 03:30:45;;;;;;;2.85;2.17;;;;;;;15.84;100.00;100483.84;5034934;28;20139;-76
2023/10/22 03:33:14;;;;;;;6.53;2.17;;;;;;;15.84;100.00;100465.59;5038667;28;20065;-76
2023/10/22 03:35:43;;;;;;;2.88;2.03;;;;;;;15.86;100.00;100466.47;5044925;28;20060;-75
2023/10/22 03:38:12;;;;;;;7.35;2.30;;;;;;;15.86;100.00;100479.50;5039530;28;20491;-77
2023/10/22 03:40:41;;;;;;;4.35;1.90;;;;;;;15.84;100.00;100476.03;5048093;28;20495;-75
2023/10/22 03:43:13;;;;;;;2.92;2.03;;;;;;;15.85;100.00;100478.66;5039016;28;20059;-77
2023/10/22 03:45:41;;;;;;;;;;;;;;;15.87;100.00;100478.63;5040532;28;20626;-75
2023/10/22 03:48:10;;;;;;;5.10;1.92;;;;;;;15.86;100.00;100476.91;5041412;28;19920;-75
2023/10/22 03:50:39;;;;;;;5.22;1.92;;;;;;;15.88;100.00;100483.00;5031278;28;20076;-74
2023/10/22 03:53:11;;;;;;;4.53;2.20;;;;;;;15.88;100.00;100472.56;5029012;28;20107;-78
2023/10/22 03:55:40;;;;;;;3.90;2.13;;;;;;;15.87;100.00;100478.63;5046162;28;20041;-77
2023/10/22 03:58:11;;;;;;;6.85;1.90;;;;;;;15.86;100.00;100469.94;5042549;28;20049;-77
2023/10/22 04:00:42;;;;;;;4.78;1.70;;;;;;;15.84;100.00;100473.41;5030617;28;20057;-77
2023/10/22 04:03:20;;;;;;;3.70;1.55;;;;;;;15.84;100.00;100473.41;5032291;28;20688;-77
2023/10/22 04:05:58;;;;;;;3.10;2.00;;;;;;;15.85;100.00;100476.03;5031613;28;21114;-77
2023/10/22 04:08:28;;;;;;;3.22;2.03;;;;;;;15.86;100.00;100476.91;5044828;28;20451;-77
2023/10/22 04:11:01;;;;;;;2.75;1.80;;;;;;;15.85;100.00;100482.97;5041805;28;20045;-77
2023/10/22 04:13:31;;;;;;;2.38;1.90;;;;;;;15.84;100.00;100474.28;5041677;28;20552;-77
2023/10/22 04:16:00;;;;;;;3.15;1.77;;;;;;;15.85;100.00;100476.03;5039090;28;20037;-77
2023/10/22 04:18:29;;;;;;;3.38;1.73;;;;;;;15.76;100.00;100476.00;5038452;28;20463;-79
2023/10/22 04:21:13;;;;;;;5.82;2.03;;;;;;;15.81;100.00;100482.09;5027205;28;20578;-78
2023/10/22 04:23:42;;;;;;;2.92;1.80;;;;;;;15.83;100.00;100488.19;5039723;28;20080;-76
2023/10/22 04:26:14;;;;;;;4.97;2.22;;;;;;;15.85;100.00;100486.47;5030331;28;20406;-75
2023/10/22 04:28:45;;;;;;;3.58;1.92;;;;;;;15.86;100.00;100482.13;5038765;28;20494;-76
2023/10/22 04:31:14;;;;;;;2.67;1.50;;;;;;;15.85;100.00;100485.56;5039120;28;20562;-76
2023/10/22 04:33:43;;;;;;;2.95;1.80;;;;;;;15.85;100.00;100480.34;5035790;28;20077;-76
2023/10/22 04:36:20;;;;;;;2.85;1.80;;;;;;;15.86;100.00;100488.19;5044002;28;20037;-77
2023/10/22 04:38:49;;;;;;;6.03;1.80;;;;;;;15.78;100.00;100469.06;5044760;28;20481;-77
2023/10/22 04:41:19;;;;;;;2.83;2.00;;;;;;;15.84;100.00;100484.72;5032957;28;20112;-75
2023/10/22 04:43:49;;;;;;;3.03;1.98;;;;;;;15.83;100.00;100482.97;5043539;28;20048;-77
2023/10/22 04:46:26;;;;;;;2.38;1.73;;;;;;;15.85;100.00;100480.34;5036853;28;20041;-77
2023/10/22 04:48:55;;;;;;;3.38;2.00;;;;;;;15.86;100.00;100479.50;5041591;28;20083;-76
2023/10/22 04:51:24;;;;;;;2.92;1.63;;;;;;;15.87;100.00;100481.25;5038073;28;20075;-75
2023/10/22 04:53:53;;;;;;;3.42;2.08;;;;;;;15.84;100.00;100479.50;5035163;28;20647;-77
2023/10/22 04:56:25;;;;;;;3.22;1.80;;;;;;;15.83;100.00;100476.91;5031746;28;20664;-78
2023/10/22 04:58:55;;;;;;;3.72;2.00;;;;;;;15.81;100.00;100479.50;5036344;28;20131;-78
2023/10/22 05:01:24;;;;;;;3.55;2.10;;;;;;;15.81;100.00;100481.25;5035031;28;20091;-77
2023/10/22 05:03:52;;;;;;;3.15;1.83;;;;;;;15.81;100.00;100479.50;5026525;28;20092;-79
2023/10/22 05:06:21;;;;;;;4.63;1.65;;;;;;;15.83;100.00;100482.13;5041810;28;20049;-79
2023/10/22 05:08:49;;;;;;;3.80;1.80;;;;;;;15.81;100.00;100478.63;5029832;28;21025;-78
2023/10/22 05:11:19;;;;;;;3.15;1.92;;;;;;;15.82;100.00;100480.34;5041329;28;20041;-79
2023/10/22 05:13:48;;;;;;;2.75;2.10;;;;;;;15.81;100.00;100483.84;5024673;28;20064;-79
2023/10/22 05:16:26;;;;;;;5.32;1.60;;;;;;;15.81;100.00;100479.50;5033193;28;20080;-79
2023/10/22 05:18:56;;;;;;;4.35;1.65;;;;;;;15.82;100.00;100486.44;5030985;28;20067;-80
2023/10/22 05:21:35;;;;;;;3.40;2.25;;;;;;;15.82;100.00;100480.34;5034658;28;20045;-75
2023/10/22 05:24:09;;;;;;;5.88;1.92;;;;;;;15.82;100.00;100480.34;5034549;28;20056;-74
2023/10/22 05:26:38;;;;;;;4.05;2.33;;;;;;;15.84;100.00;100489.06;5035693;28;20132;-75
2023/10/22 05:29:08;;;;;;;3.45;1.98;;;;;;;15.85;100.00;100477.75;5036609;28;20542;-76
2023/10/22 05:31:38;;;;;;;4.82;2.30;;;;;;;15.85;100.00;100480.34;5034662;28;20045;-76
2023/10/22 05:34:16;;;;;;;5.43;2.03;;;;;;;15.85;100.00;100480.34;5031268;28;20053;-73
2023/10/22 05:36:45;;;;;;;2.58;1.80;;;;;;;15.84;100.00;100483.84;5034334;28;20049;-76
2023/10/22 05:39:14;;;;;;;2.53;1.80;;;;;;;15.81;100.00;100489.06;5039427;28;20091;-77
2023/10/22 05:41:43;;;;;;;2.97;2.22;;;;;;;15.80;100.00;100487.31;5038434;28;20143;-77
2023/10/22 05:44:14;;;;;;;4.18;2.38;;;;;;;15.76;100.00;100490.75;5037592;28;20056;-76
2023/10/22 05:46:45;;;;;;;4.90;1.90;;;;;;;15.76;100.00;100485.53;5037962;28;20388;-78
2023/10/22 05:49:16;;;;;;;4.63;1.85;;;;;;;15.64;100.00;100466.34;5039513;28;20129;-76
2023/10/22 05:51:45;;;;;;;3.55;1.88;;;;;;;15.69;100.00;100485.50;5040839;28;20048;-78
2023/10/22 05:54:20;;;;;;;3.85;2.17;;;;;;;15.71;100.00;100482.91;5038719;28;20049;-75
2023/10/22 05:56:49;;;;;;;8.52;2.88;;;;;;;15.68;100.00;100483.75;5038768;28;20053;-76
2023/10/22 05:59:18;;;;;;;6.30;3.40;;;;;;;15.66;100.00;100485.47;5035950;28;20041;-78
2023/10/22 06:01:59;;;;;;;8.50;3.40;;;;;;;15.64;100.00;100476.75;5036795;28;20064;-77
2023/10/22 06:04:27;;;;;;;4.82;2.65;;;;;;;15.64;100.00;100479.38;5035634;28;20693;-76
2023/10/22 06:06:56;;;;;;;7.32;2.25;;;;;;;15.64;100.00;100471.56;5035251;28;20045;-76
2023/10/22 06:09:25;;;;;;;4.18;2.35;;;;;;;15.67;100.00;100470.72;5037701;28;20546;-76
2023/10/22 06:12:00;;;;;;;5.85;2.47;;;;;;;15.67;100.00;100475.94;5044009;28;20064;-76
2023/10/22 06:14:29;;;;;;;7.10;2.50;;;;;;;15.61;100.00;100466.31;5034165;28;20053;-77
2023/10/22 06:16:59;;;;;;;6.47;2.70;;;;;;;15.58;100.00;100471.53;5041575;28;20971;-78
2023/10/22 06:19:30;;;;;;;5.25;3.17;;;;;;;15.56;100.00;100472.41;5044286;28;20053;-77
2023/10/22 06:22:04;;;;;;;4.93;2.30;;;;;;;15.54;100.00;100468.91;5036342;28;20542;-77
2023/10/22 06:24:33;;;;;;;5.50;2.58;;;;;;;15.54;100.00;100463.69;5041788;28;20543;-77
2023/10/22 06:27:02;;;;;;;3.45;2.38;;;;;;;15.57;100.00;100466.31;5045779;28;20132;-77
2023/10/22 06:29:32;;;;;;;4.60;2.78;;;;;;;15.58;100.00;100455.91;5043267;28;20049;-76
2023/10/22 06:32:10;;;;;;;3.08;2.40;;;;;;;15.59;100.00;100459.38;5039413;28;20045;-78
2023/10/22 06:34:39;;;;;;;4.90;2.35;;;;;;;15.58;100.00;100453.28;5044553;28;20037;-77
2023/10/22 06:37:11;;;;;;;4.80;2.60;;;;;;;15.56;100.00;100449.81;5041208;28;20102;-77
2023/10/22 06:39:47;;;;;;;9.18;3.22;;;;;;;15.54;100.00;100453.28;5046667;28;20103;-77
2023/10/22 06:42:15;;;;;;;4.05;2.45;;;;;;;15.54;100.00;100454.13;5044599;28;20051;-78
2023/10/22 06:44:44;;;;;;;5.53;2.65;;;;;;;15.53;100.00;100461.94;5044953;28;20396;-78
2023/10/22 06:47:28;;;;;;;4.05;2.78;;;;;;;15.48;100.00;100452.38;5044902;28;20049;-78
2023/10/22 06:49:57;;;;;;;4.13;2.53;;;;;;;15.44;100.00;100455.84;5044228;28;20093;-77
2023/10/22 06:52:26;;;;;;;4.18;2.72;;;;;;;15.46;100.00;100461.03;5041293;28;20048;-78
2023/10/22 06:54:58;;;;;;;4.43;2.80;;;;;;;15.48;100.00;100456.69;5036982;28;20048;-78
2023/10/22 06:57:30;;;;;;;4.93;2.22;;;;;;;15.49;100.00;100466.28;5039657;28;20049;-79
2023/10/22 06:59:59;;;;;;;4.93;3.22;;;;;;;15.52;100.00;100465.44;5041791;28;20059;-79
2023/10/22 07:02:30;;;;;;;5.45;2.80;;;;;;;15.54;100.00;100458.47;5038572;28;20110;-77
2023/10/22 07:05:10;;;;;;;4.97;2.72;;;;;;;15.56;100.00;100457.63;5035898;28;20041;-76
2023/10/22 07:07:41;;;;;;;8.15;2.80;;;;;;;15.55;100.00;100463.69;5041401;28;20076;-76
2023/10/22 07:10:11;;;;;;;5.65;3.22;;;;;;;15.56;100.00;100459.38;5040430;28;20059;-77
2023/10/22 07:12:45;;;;;;;4.20;2.88;;;;;;;15.56;100.00;100457.63;5040718;28;20048;-77
2023/10/22 07:15:14;;;;;;;4.60;2.30;;;;;;;15.57;100.00;100464.56;5038724;28;20053;-75
2023/10/22 07:17:44;;;;;;;7.03;2.90;;;;;;;15.56;100.00;100462.84;5046281;28;20046;-78
2023/10/22 07:20:13;;;;;;;4.97;2.25;;;;;;;15.55;100.00;100457.59;5044221;28;20069;-76
2023/10/22 07:22:54;;;;;;;5.00;2.60;;;;;;;15.55;100.00;100455.00;5038266;28;20096;-76
2023/10/22 07:25:22;;;;;;;7.72;2.85;;;;;;;15.54;100.00;100461.09;5037384;28;20538;-77
2023/10/22 07:27:51;;;;;;;4.20;2.85;;;;;;;15.54;100.00;100463.69;5043185;28;20118;-76
2023/10/22 07:30:21;;;;;;;5.15;2.90;;;;;;;15.51;100.00;100464.56;5043301;28;20523;-76
2023/10/22 07:32:55;;;;;;;3.97;2.85;;;;;;;15.54;100.00;100469.78;5039667;28;20049;-77
2023/10/22 07:35:24;;;;;;;4.82;3.15;;;;;;;15.53;100.00;100468.06;5048441;28;20041;-77
2023/10/22 07:37:52;;;;;;;6.85;2.63;;;;;;;15.52;100.00;100461.06;5043473;28;20063;-77
2023/10/22 07:40:22;;;;;;;9.63;3.00;;;;;;;15.52;100.00;100466.28;5043855;28;20053;-77
2023/10/22 07:42:58;;;;;;;6.60;3.17;;;;;;;15.53;100.00;100468.06;5040234;28;20056;-77
2023/10/22 07:45:26;;;;;;;5.18;2.50;;;;;;;15.54;100.00;100469.78;5042655;28;20052;-77
2023/10/22 07:47:57;;;;;;;6.07;2.90;;;;;;;15.53;100.00;100470.66;5042734;28;20068;-78
2023/10/22 07:50:26;;;;;;;4.53;2.67;;;;;;;15.54;100.00;100468.91;5039306;28;20045;-76
2023/10/22 07:52:57;;;;;;;2.13;1.80;;;;;;;15.54;100.00;100461.09;5045501;28;20045;-77
2023/10/22 07:55:25;;;;;;;3.78;2.75;;;;;;;15.52;100.00;100463.69;5041483;28;20491;-77
2023/10/22 07:57:54;;;;;;;6.63;2.50;;;;;;;15.50;100.00;100457.59;5041025;28;20071;-77
2023/10/22 08:00:23;;;;;;;3.05;2.10;;;;;;;15.49;100.00;100456.72;5041108;28;20049;-77
2023/10/22 08:02:58;;;;;;;5.55;2.75;;;;;;;15.47;100.00;100460.19;5033796;28;20042;-78
2023/10/22 08:05:29;;;;;;;5.57;2.33;;;;;;;15.47;100.00;100460.19;5042278;28;20769;-78
2023/10/22 08:07:57;;;;;;;4.95;2.60;;;;;;;15.46;100.00;100450.59;5036862;28;20045;-77
2023/10/22 08:10:26;;;;;;;8.27;2.67;;;;;;;15.46;100.00;100451.50;5041591;28;20646;-77
2023/10/22 08:12:56;;;;;;;7.03;2.30;;;;;;;15.48;100.00;100448.88;5039829;28;20055;-77
2023/10/22 08:15:28;;;;;;;6.03;2.85;;;;;;;15.44;100.00;100452.38;5039460;28;20474;-77
2023/10/22 08:17:57;;;;;;;5.30;2.80;;;;;;;15.43;100.00;100451.47;5044367;28;20728;-77
2023/10/22 08:20:28;;;;;;;5.78;2.67;;;;;;;15.43;100.00;100456.69;5040080;28;20056;-77
2023/10/22 08:22:58;;;;;;;3.97;2.40;;;;;;;15.44;100.00;100449.75;5041169;28;20045;-77
2023/10/22 08:25:27;;;;;;;7.57;2.78;;;;;;;15.45;100.00;100451.47;5037610;28;20136;-77
2023/10/22 08:27:57;;;;;;;7.35;2.72;;;;;;;15.46;100.00;100450.59;5041272;28;20141;-77
2023/10/22 08:30:25;;;;;;;3.45;2.60;;;;;;;15.45;100.00;100448.88;5044901;28;20045;-77
2023/10/22 08:32:54;;;;;;;5.57;2.95;;;;;;;15.44;100.00;100453.22;5038042;28;20930;-78
2023/10/22 08:35:28;;;;;;;4.70;3.13;;;;;;;15.44;100.00;100449.75;5036505;28;20632;-79
2023/10/22 08:37:58;;;;;;;7.53;2.70;;;;;;;15.44;100.00;100452.38;5041841;28;20135;-77
2023/10/22 08:40:27;;;;;;;4.15;2.78;;;;;;;15.41;100.00;100440.16;5035311;28;20044;-77
2023/10/22 08:42:57;;;;;;;5.90;3.00;;;;;;;15.40;100.00;100445.38;5038444;28;20111;-77
2023/10/22 08:45:31;;;;;;;5.22;2.33;;;;;;;15.42;100.00;100448.88;5041104;28;20529;-76
2023/10/22 08:48:04;;;;;;;7.30;2.92;;;;;;;15.43;100.00;100445.38;5040265;28;20136;-77
2023/10/22 08:50:34;;;;;;;5.10;2.58;;;;;;;15.42;100.00;100441.06;5044226;28;20088;-77
2023/10/22 08:53:14;;;;;;;8.43;2.60;;;;;;;15.44;100.00;100431.50;5037334;28;20162;-76
2023/10/22 08:55:46;;;;;;;4.25;2.83;;;;;;;15.41;100.00;100436.69;5040846;28;20076;-77
2023/10/22 08:58:17;;;;;;;6.32;3.13;;;;;;;15.41;100.00;100437.56;5041719;28;20556;-77
2023/10/22 09:00:52;;;;;;;4.55;2.65;;;;;;;15.40;100.00;100434.97;5037262;28;20044;-76
2023/10/22 09:03:24;;;;;;;4.15;2.28;;;;;;;15.40;100.00;100440.16;5035943;28;20534;-77
2023/10/22 09:05:53;;;;;;;;;;;;;;;15.40;100.00;100440.16;5041236;28;20147;-76
2023/10/22 09:08:42;;;;;;;5.40;2.92;;;;;;;15.40;100.00;100442.78;5041729;28;19921;-77
2023/10/22 09:11:15;;;;;;;4.72;3.13;;;;;;;15.40;100.00;100442.78;5037302;28;20139;-77
2023/10/22 09:13:50;;;;;;;;;;;;;;;15.39;100.00;100444.53;5037553;28;20049;-77
2023/10/22 09:16:33;;;;;;;6.70;2.33;;;;;;;15.37;100.00;100446.25;5044296;28;19990;-76
2023/10/22 09:19:12;;;;;;;3.78;2.05;;;;;;;15.36;100.00;100443.63;5037135;28;20057;-76
2023/10/22 09:21:44;;;;;;;3.83;2.50;;;;;;;15.26;100.00;100433.16;5032524;28;20076;-76
2023/10/22 09:24:14;;;;;;;;;;;;;;;15.35;100.00;100452.31;5038748;28;20080;-76
2023/10/22 09:26:51;;;;;;;9.10;3.03;;;;;;;15.33;100.00;100443.63;5039040;28;20639;-77
2023/10/22 09:29:19;;;;;;;4.15;2.90;;;;;;;15.33;100.00;100441.00;5036818;28;20057;-76
2023/10/22 09:31:52;;;;;;;4.30;2.33;;;;;;;15.30;100.00;100441.84;5043034;28;20049;-76
2023/10/22 09:34:30;;;;;;;7.07;2.83;;;;;;;15.28;100.00;100447.06;5044178;28;20122;-77
2023/10/22 09:37:00;;;;;;;7.28;3.00;;;;;;;15.29;100.00;100448.78;5033177;28;20526;-76
2023/10/22 09:39:42;;;;;;;8.82;3.30;;;;;;;15.29;100.00;100445.31;5034622;28;20494;-76
2023/10/22 09:42:15;;;;;;;7.05;2.72;;;;;;;15.29;100.00;100447.94;5036201;28;20041;-75
2023/10/22 09:44:45;;;;;;;7.57;2.80;;;;;;;15.26;100.00;100454.00;5038981;28;20045;-75
2023/10/22 09:47:19;;;;;;;17.27;3.08;;;;;;;15.23;100.00;100448.78;5035413;28;20379;-76
2023/10/22 09:49:52;;;;;;;5.75;2.92;;;;;;;15.17;100.00;100451.34;5033938;28;20095;-76
2023/10/22 09:52:24;;;;;;;7.97;3.08;;;;;;;15.07;100.00;100446.91;5032111;28;20084;-77
2023/10/22 09:54:56;;;;;;;7.15;3.13;;;;;;;15.13;100.00;100460.00;5039440;28;20045;-78
2023/10/22 09:57:39;;;;;;;6.47;3.00;;;;;;;15.14;100.00;100448.72;5046171;28;20052;-79
2023/10/22 10:00:12;;;;;;;15.25;3.08;;;;;;;15.16;100.00;100446.09;5040553;28;20071;-77
2023/10/22 10:02:44;;;;;;;5.63;3.17;;;;;;;15.19;100.00;100443.53;5041085;28;20570;-77
2023/10/22 10:05:18;;;;;;;8.13;2.80;;;;;;;15.20;100.00;100448.75;5048635;28;20613;-77
2023/10/22 10:07:49;;;;;;;10.85;3.47;;;;;;;15.20;100.00;100433.09;5041018;28;20889;-77
2023/10/22 10:10:24;;;;;;;6.45;3.70;;;;;;;15.18;100.00;100437.44;5044614;28;20049;-78
2023/10/22 10:12:55;;;;;;;6.70;3.30;;;;;;;15.15;100.00;100444.38;5043888;28;20698;-77
2023/10/22 10:15:34;;;;;;;6.70;3.70;;;;;;;15.13;100.00;100444.38;5044243;28;20053;-76
2023/10/22 10:18:09;;;;;;;8.48;3.28;;;;;;;15.13;100.00;100441.75;5035574;28;20056;-77
2023/10/22 10:20:41;;;;;;;5.57;3.40;;;;;;;15.15;100.00;100444.38;5043971;28;20065;-76
2023/10/22 10:23:11;;;;;;;13.47;3.53;;;;;;;15.17;100.00;100447.88;5042953;28;20049;-78
2023/10/22 10:25:42;;;;;;;5.75;3.00;;;;;;;15.20;100.00;100455.69;5038160;28;20334;-78
2023/10/22 10:28:15;;;;;;;8.73;3.77;;;;;;;15.21;100.00;100445.28;5038650;28;20037;-76
2023/10/22 10:30:44;;;;;;;5.45;3.15;;;;;;;15.23;100.00;100442.66;5044766;28;20076;-75
2023/10/22 10:33:14;;;;;;;6.20;3.90;;;;;;;15.22;100.00;100439.19;5046528;28;20640;-76
2023/10/22 10:36:05;;;;;;;5.40;2.88;;;;;;;15.23;100.00;100440.06;5038866;28;20042;-77
2023/10/22 10:38:36;;;;;;;5.30;3.03;;;;;;;15.22;100.00;100438.34;5044367;28;20057;-77
2023/10/22 10:41:13;;;;;;;7.23;3.27;;;;;;;15.23;100.00;100433.16;5039816;28;20648;-78
2023/10/22 10:44:10;;;;;;;6.28;3.35;;;;;;;15.24;100.00;100437.47;5036258;28;20057;-77
2023/10/22 10:46:39;;;;;;;5.30;3.33;;;;;;;15.25;100.00;100435.75;5045707;28;20500;-76
2023/10/22 10:49:08;;;;;;;6.03;2.83;;;;;;;15.24;100.00;100432.25;5043089;28;20410;-77
2023/10/22 10:51:37;;;;;;;5.78;3.30;;;;;;;15.23;100.00;100433.16;5043002;28;20041;-76
2023/10/22 10:54:20;;;;;;;8.18;3.25;;;;;;;15.24;100.00;100429.66;5039305;28;20335;-76
2023/10/22 10:56:53;;;;;;;5.05;3.15;;;;;;;15.23;100.00;100422.72;5046434;28;20110;-77
2023/10/22 10:59:42;;;;;;;6.25;3.33;;;;;;;15.25;100.00;100420.09;5040277;28;20128;-75
2023/10/22 11:02:14;;;;;;;5.30;3.20;;;;;;;15.23;100.00;100421.81;5031529;28;20099;-76
2023/10/22 11:04:49;;;;;;;11.32;4.50;;;;;;;15.19;100.00;100425.31;5035074;28;20041;-76
2023/10/22 11:07:21;;;;;;;5.25;2.85;;;;;;;15.18;100.00;100419.19;5037926;28;20568;-77
2023/10/22 11:09:50;;;;;;;4.32;2.67;;;;;;;15.18;100.00;100418.31;5043793;28;20615;-76
2023/10/22 11:12:31;;;;;;;6.82;2.85;;;;;;;15.17;100.00;100416.59;5040228;28;20283;-75
2023/10/22 11:15:00;;;;;;;7.78;3.08;;;;;;;15.16;100.00;100420.91;5047757;28;20135;-76
2023/10/22 11:17:28;;;;;;;7.00;3.63;;;;;;;15.15;100.00;100413.97;5041159;28;20041;-76
2023/10/22 11:20:14;;;;;;;4.82;2.80;;;;;;;15.16;100.00;100418.31;5041439;28;20553;-76
2023/10/22 11:22:42;;;;;;;7.38;3.20;;;;;;;15.17;100.00;100421.81;5037769;28;20145;-76
2023/10/22 11:25:16;;;;;;;4.20;3.05;;;;;;;15.16;100.00;100412.22;5041290;28;20548;-77
2023/10/22 11:27:55;;;;;;;3.90;2.33;;;;;;;15.14;100.00;100416.56;5035842;28;20431;-77
2023/10/22 11:30:38;;;;;;;4.75;2.45;;;;;;;15.14;100.00;100416.56;5041869;28;20486;-76
2023/10/22 11:33:11;;;;;;;;;;;;;;;15.11;100.00;100406.13;5039647;28;20052;-76
2023/10/22 11:35:40;;;;;;;6.32;3.33;;;;;;;15.15;100.00;100408.75;5041769;28;19943;-76
2023/10/22 11:38:09;;;;;;;4.55;2.90;;;;;;;15.17;100.00;100416.59;5038998;28;20052;-75
2023/10/22 11:40:38;;;;;;;4.47;2.83;;;;;;;15.17;100.00;100414.00;5032943;28;20081;-76